sensor_id;sensor_type;location;lat;lon;timestamp;pressure;altitude;pressure_sealevel;temperature;humidity
72395;BME280;60384;48.152;11.614;2022-07-23T00:00:07;95660.28;;;27.16;43.10
72395;BME280;60384;48.152;11.614;2022-07-23T00:03:08;95663.53;;;27.11;43.35
72395;BME280;60384;48.152;11.614;2022-07-23T00:06:08;95655.50;;;27.00;43.39
72395;BME280;60384;48.152;11.614;2022-07-23T00:09:09;95655.22;;;26.95;44.12
72395;BME280;60384;48.152;11.614;2022-07-23T00:12:09;95647.84;;;26.92;43.92
72395;BME280;60384;48.152;11.614;2022-07-23T00:15:10;95637.78;;;26.85;43.95
72395;BME280;60384;48.152;11.614;2022-07-23T00:18:10;95639.41;;;26.83;43.51
72395;BME280;60384;48.152;11.614;2022-07-23T00:21:11;95642.97;;;26.80;43.91
72395;BME280;60384;48.152;11.614;2022-07-23T00:24:11;95632.84;;;26.77;43.20
72395;BME280;60384;48.152;11.614;2022-07-23T00:27:12;95645.00;;;26.76;43.99
72395;BME280;60384;48.152;11.614;2022-07-23T00:30:12;95637.63;;;26.72;43.85
72395;BME280;60384;48.152;11.614;2022-07-23T00:33:13;95642.00;;;26.70;43.64
72395;BME280;60384;48.152;11.614;2022-07-23T00:36:14;95643.19;;;26.69;43.48
72395;BME280;60384;48.152;11.614;2022-07-23T00:39:14;95629.47;;;26.69;43.53
72395;BME280;60384;48.152;11.614;2022-07-23T00:42:15;95643.19;;;26.69;43.53
72395;BME280;60384;48.152;11.614;2022-07-23T00:45:15;95640.84;;;26.67;43.82
72395;BME280;60384;48.152;11.614;2022-07-23T00:48:15;95647.47;;;26.70;43.57
72395;BME280;60384;48.152;11.614;2022-07-23T00:51:17;95663.44;;;26.75;43.67
72395;BME280;60384;48.152;11.614;2022-07-23T00:54:17;95661.88;;;26.74;43.80
72395;BME280;60384;48.152;11.614;2022-07-23T00:57:18;95671.41;;;26.66;43.35
72395;BME280;60384;48.152;11.614;2022-07-23T01:00:18;95677.75;;;26.63;43.95
72395;BME280;60384;48.152;11.614;2022-07-23T01:03:19;95679.44;;;26.57;43.66
72395;BME280;60384;48.152;11.614;2022-07-23T01:06:19;95693.22;;;26.53;43.78
72395;BME280;60384;48.152;11.614;2022-07-23T01:09:20;95716.31;;;26.52;44.25
72395;BME280;60384;48.152;11.614;2022-07-23T01:12:20;95732.47;;;26.47;44.25
72395;BME280;60384;48.152;11.614;2022-07-23T01:15:21;95768.91;;;26.44;44.65
72395;BME280;60384;48.152;11.614;2022-07-23T01:18:21;95777.13;;;26.44;44.97
72395;BME280;60384;48.152;11.614;2022-07-23T01:21:22;95804.19;;;26.42;44.76
72395;BME280;60384;48.152;11.614;2022-07-23T01:24:22;95837.06;;;26.42;45.29
72395;BME280;60384;48.152;11.614;2022-07-23T01:27:22;95847.72;;;26.36;45.28
72395;BME280;60384;48.152;11.614;2022-07-23T01:30:23;95860.47;;;26.19;46.10
72395;BME280;60384;48.152;11.614;2022-07-23T01:33:23;95860.09;;;26.17;45.74
72395;BME280;60384;48.152;11.614;2022-07-23T01:36:24;95871.16;;;26.10;45.62
72395;BME280;60384;48.152;11.614;2022-07-23T01:39:24;95852.34;;;25.82;45.88
72395;BME280;60384;48.152;11.614;2022-07-23T01:42:25;95835.53;;;25.46;45.94
72395;BME280;60384;48.152;11.614;2022-07-23T01:45:26;95835.97;;;25.10;45.82
72395;BME280;60384;48.152;11.614;2022-07-23T01:48:27;95844.75;;;24.88;46.27
72395;BME280;60384;48.152;11.614;2022-07-23T01:51:27;95815.66;;;24.63;46.71
72395;BME280;60384;48.152;11.614;2022-07-23T01:54:30;95808.88;;;24.38;47.27
72395;BME280;60384;48.152;11.614;2022-07-23T01:57:30;95839.03;;;24.20;47.22
72395;BME280;60384;48.152;11.614;2022-07-23T02:00:31;95842.19;;;24.04;47.67
72395;BME280;60384;48.152;11.614;2022-07-23T02:03:31;95831.38;;;23.90;47.83
72395;BME280;60384;48.152;11.614;2022-07-23T02:06:32;95813.16;;;23.69;48.49
72395;BME280;60384;48.152;11.614;2022-07-23T02:09:32;95797.25;;;23.54;48.67
72395;BME280;60384;48.152;11.614;2022-07-23T02:12:33;95807.81;;;23.37;49.43
72395;BME280;60384;48.152;11.614;2022-07-23T02:15:34;95812.13;;;23.28;49.08
72395;BME280;60384;48.152;11.614;2022-07-23T02:18:34;95809.06;;;23.12;49.13
72395;BME280;60384;48.152;11.614;2022-07-23T02:21:35;95817.28;;;22.87;50.29
72395;BME280;60384;48.152;11.614;2022-07-23T02:24:35;95811.09;;;22.72;50.84
72395;BME280;60384;48.152;11.614;2022-07-23T02:27:37;95802.91;;;22.58;51.33
72395;BME280;60384;48.152;11.614;2022-07-23T02:30:37;95811.06;;;22.47;51.59
72395;BME280;60384;48.152;11.614;2022-07-23T02:33:39;95786.97;;;22.32;51.46
72395;BME280;60384;48.152;11.614;2022-07-23T02:36:39;95765.97;;;22.14;51.42
72395;BME280;60384;48.152;11.614;2022-07-23T02:39:40;95772.59;;;22.10;51.64
72395;BME280;60384;48.152;11.614;2022-07-23T02:42:40;95758.97;;;22.10;51.33
72395;BME280;60384;48.152;11.614;2022-07-23T02:45:41;95751.97;;;22.12;51.22
72395;BME280;60384;48.152;11.614;2022-07-23T02:48:41;95743.41;;;22.14;51.56
72395;BME280;60384;48.152;11.614;2022-07-23T02:51:42;95753.94;;;22.15;51.44
72395;BME280;60384;48.152;11.614;2022-07-23T02:57:43;95793.56;;;22.16;51.63
72395;BME280;60384;48.152;11.614;2022-07-23T03:00:43;95828.94;;;22.09;51.93
72395;BME280;60384;48.152;11.614;2022-07-23T03:03:44;95835.03;;;21.67;53.15
72395;BME280;60384;48.152;11.614;2022-07-23T03:06:44;95867.16;;;21.44;53.42
72395;BME280;60384;48.152;11.614;2022-07-23T03:09:45;95871.75;;;21.29;53.96
72395;BME280;60384;48.152;11.614;2022-07-23T03:12:45;95846.88;;;21.24;54.07
72395;BME280;60384;48.152;11.614;2022-07-23T03:15:45;95872.13;;;21.28;54.30
72395;BME280;60384;48.152;11.614;2022-07-23T03:18:46;95853.47;;;21.23;54.29
72395;BME280;60384;48.152;11.614;2022-07-23T03:21:46;95841.03;;;21.25;54.47
72395;BME280;60384;48.152;11.614;2022-07-23T03:24:47;95853.47;;;21.26;55.07
72395;BME280;60384;48.152;11.614;2022-07-23T03:27:53;95843.41;;;21.30;55.02
72395;BME280;60384;48.152;11.614;2022-07-23T03:30:54;95848.09;;;21.33;54.80
72395;BME280;60384;48.152;11.614;2022-07-23T03:33:54;95833.34;;;21.38;54.92
72395;BME280;60384;48.152;11.614;2022-07-23T03:36:54;95820.53;;;21.38;54.95
72395;BME280;60384;48.152;11.614;2022-07-23T03:39:55;95796.09;;;21.46;54.97
72395;BME280;60384;48.152;11.614;2022-07-23T03:42:55;95758.84;;;21.57;54.59
72395;BME280;60384;48.152;11.614;2022-07-23T03:45:55;95729.75;;;21.68;54.54
72395;BME280;60384;48.152;11.614;2022-07-23T03:48:56;95700.22;;;21.77;54.29
72395;BME280;60384;48.152;11.614;2022-07-23T03:51:56;95710.72;;;21.82;54.44
72395;BME280;60384;48.152;11.614;2022-07-23T03:54:56;95752.31;;;21.86;54.28
72395;BME280;60384;48.152;11.614;2022-07-23T03:57:57;95761.63;;;21.89;54.38
72395;BME280;60384;48.152;11.614;2022-07-23T04:00:57;95763.97;;;21.90;54.25
72395;BME280;60384;48.152;11.614;2022-07-23T04:03:58;95748.81;;;21.89;54.45
72395;BME280;60384;48.152;11.614;2022-07-23T04:06:58;95750.78;;;21.92;54.34
72395;BME280;60384;48.152;11.614;2022-07-23T04:09:58;95752.34;;;21.97;54.39
72395;BME280;60384;48.152;11.614;2022-07-23T04:12:59;95754.69;;;22.02;54.47
72395;BME280;60384;48.152;11.614;2022-07-23T04:15:59;95753.50;;;22.06;54.29
72395;BME280;60384;48.152;11.614;2022-07-23T04:18:59;95754.31;;;22.03;54.17
72395;BME280;60384;48.152;11.614;2022-07-23T04:22:00;95746.13;;;22.03;54.31
72395;BME280;60384;48.152;11.614;2022-07-23T04:25:00;95737.19;;;22.06;54.61
72395;BME280;60384;48.152;11.614;2022-07-23T04:28:01;95727.88;;;22.07;54.60
72395;BME280;60384;48.152;11.614;2022-07-23T04:31:01;95713.88;;;22.12;54.71
72395;BME280;60384;48.152;11.614;2022-07-23T04:34:01;95704.94;;;22.15;54.53
72395;BME280;60384;48.152;11.614;2022-07-23T04:37:02;95694.81;;;22.19;54.62
72395;BME280;60384;48.152;11.614;2022-07-23T04:40:03;95702.59;;;22.24;54.48
72395;BME280;60384;48.152;11.614;2022-07-23T04:43:03;95722.78;;;22.27;54.41
72395;BME280;60384;48.152;11.614;2022-07-23T04:46:05;95723.56;;;22.27;54.49
72395;BME280;60384;48.152;11.614;2022-07-23T04:49:06;95724.75;;;22.27;54.50
72395;BME280;60384;48.152;11.614;2022-07-23T04:52:06;95715.03;;;22.29;54.83
72395;BME280;60384;48.152;11.614;2022-07-23T04:55:07;95704.91;;;22.37;54.64
72395;BME280;60384;48.152;11.614;2022-07-23T04:58:07;95702.53;;;22.46;54.84
72395;BME280;60384;48.152;11.614;2022-07-23T05:01:07;95699.44;;;22.54;54.47
72395;BME280;60384;48.152;11.614;2022-07-23T05:04:08;95700.97;;;22.59;54.34
72395;BME280;60384;48.152;11.614;2022-07-23T05:07:08;95695.50;;;22.66;54.39
72395;BME280;60384;48.152;11.614;2022-07-23T05:10:09;95709.88;;;22.70;53.97
72395;BME280;60384;48.152;11.614;2022-07-23T05:13:09;95700.16;;;22.73;54.15
72395;BME280;60384;48.152;11.614;2022-07-23T05:16:09;95695.47;;;22.80;54.07
72395;BME280;60384;48.152;11.614;2022-07-23T05:19:10;95701.69;;;22.88;53.90
72395;BME280;60384;48.152;11.614;2022-07-23T05:22:10;95704.78;;;22.93;54.41
72395;BME280;60384;48.152;11.614;2022-07-23T05:25:10;95709.03;;;23.01;53.76
72395;BME280;60384;48.152;11.614;2022-07-23T05:28:11;95706.66;;;23.07;53.57
72395;BME280;60384;48.152;11.614;2022-07-23T05:31:11;95712.91;;;23.11;53.76
72395;BME280;60384;48.152;11.614;2022-07-23T05:34:12;95708.63;;;23.10;54.08
72395;BME280;60384;48.152;11.614;2022-07-23T05:37:12;95717.53;;;23.21;53.64
72395;BME280;60384;48.152;11.614;2022-07-23T05:40:13;95719.78;;;23.37;54.02
72395;BME280;60384;48.152;11.614;2022-07-23T05:43:13;95733.78;;;23.39;53.62
72395;BME280;60384;48.152;11.614;2022-07-23T05:46:14;95726.75;;;23.41;53.88
72395;BME280;60384;48.152;11.614;2022-07-23T05:49:14;95727.53;;;23.42;53.70
72395;BME280;60384;48.152;11.614;2022-07-23T05:52:15;95735.72;;;23.42;53.47
72395;BME280;60384;48.152;11.614;2022-07-23T05:55:15;95742.72;;;23.43;53.55
72395;BME280;60384;48.152;11.614;2022-07-23T05:58:16;95754.81;;;23.45;53.41
72395;BME280;60384;48.152;11.614;2022-07-23T06:01:16;95759.09;;;23.50;53.75
72395;BME280;60384;48.152;11.614;2022-07-23T06:04:16;95760.56;;;23.65;53.74
72395;BME280;60384;48.152;11.614;2022-07-23T06:07:17;95759.72;;;23.75;53.09
72395;BME280;60384;48.152;11.614;2022-07-23T06:10:17;95765.94;;;23.79;53.07
72395;BME280;60384;48.152;11.614;2022-07-23T06:13:18;95769.81;;;23.82;53.06
72395;BME280;60384;48.152;11.614;2022-07-23T06:16:18;95760.84;;;23.85;53.12
72395;BME280;60384;48.152;11.614;2022-07-23T06:19:19;95749.53;;;23.83;53.10
72395;BME280;60384;48.152;11.614;2022-07-23T06:22:19;95737.47;;;23.84;53.19
72395;BME280;60384;48.152;11.614;2022-07-23T06:25:20;95730.03;;;23.84;53.17
72395;BME280;60384;48.152;11.614;2022-07-23T06:28:20;95721.50;;;23.79;53.34
72395;BME280;60384;48.152;11.614;2022-07-23T06:31:21;95714.88;;;23.76;53.11
72395;BME280;60384;48.152;11.614;2022-07-23T06:34:21;95692.28;;;23.79;53.42
72395;BME280;60384;48.152;11.614;2022-07-23T06:37:21;95704.66;;;23.87;53.14
72395;BME280;60384;48.152;11.614;2022-07-23T06:40:22;95710.09;;;23.95;53.35
72395;BME280;60384;48.152;11.614;2022-07-23T06:43:22;95729.94;;;23.99;53.22
72395;BME280;60384;48.152;11.614;2022-07-23T06:46:22;95724.88;;;23.97;53.00
72395;BME280;60384;48.152;11.614;2022-07-23T06:49:23;95756.88;;;23.97;53.33
72395;BME280;60384;48.152;11.614;2022-07-23T06:52:23;95774.81;;;23.94;53.33
72395;BME280;60384;48.152;11.614;2022-07-23T06:55:24;95786.91;;;23.93;53.65
72395;BME280;60384;48.152;11.614;2022-07-23T06:58:24;95791.22;;;23.91;53.45
72395;BME280;60384;48.152;11.614;2022-07-23T07:01:24;95790.81;;;23.92;53.35
72395;BME280;60384;48.152;11.614;2022-07-23T07:04:25;95787.66;;;23.97;53.44
72395;BME280;60384;48.152;11.614;2022-07-23T07:07:25;95786.47;;;24.02;52.77
72395;BME280;60384;48.152;11.614;2022-07-23T07:10:26;95797.00;;;24.03;53.46
72395;BME280;60384;48.152;11.614;2022-07-23T07:13:26;95794.25;;;24.03;53.14
72395;BME280;60384;48.152;11.614;2022-07-23T07:16:27;95793.47;;;24.03;53.18
72395;BME280;60384;48.152;11.614;2022-07-23T07:19:27;95790.31;;;24.08;53.22
72395;BME280;60384;48.152;11.614;2022-07-23T07:22:27;95786.34;;;24.16;53.39
72395;BME280;60384;48.152;11.614;2022-07-23T07:25:28;95783.25;;;24.14;53.33
72395;BME280;60384;48.152;11.614;2022-07-23T07:28:28;95783.69;;;24.05;53.48
72395;BME280;60384;48.152;11.614;2022-07-23T07:31:29;95788.38;;;24.05;54.04
72395;BME280;60384;48.152;11.614;2022-07-23T07:34:29;95786.03;;;24.07;53.82
72395;BME280;60384;48.152;11.614;2022-07-23T07:37:29;95795.31;;;24.16;53.43
72395;BME280;60384;48.152;11.614;2022-07-23T07:40:30;95800.75;;;24.23;53.37
72395;BME280;60384;48.152;11.614;2022-07-23T07:43:30;95793.00;;;24.15;53.59
72395;BME280;60384;48.152;11.614;2022-07-23T07:46:31;95803.16;;;24.11;53.76
72395;BME280;60384;48.152;11.614;2022-07-23T07:49:31;95813.38;;;24.00;54.20
72395;BME280;60384;48.152;11.614;2022-07-23T07:52:31;95817.34;;;23.88;54.15
72395;BME280;60384;48.152;11.614;2022-07-23T07:55:32;95821.66;;;23.85;54.42
72395;BME280;60384;48.152;11.614;2022-07-23T07:58:32;95829.78;;;23.93;54.71
72395;BME280;60384;48.152;11.614;2022-07-23T08:01:32;95826.28;;;23.96;54.48
72395;BME280;60384;48.152;11.614;2022-07-23T08:04:33;95825.44;;;24.06;54.16
72395;BME280;60384;48.152;11.614;2022-07-23T08:07:33;95823.44;;;24.20;53.93
72395;BME280;60384;48.152;11.614;2022-07-23T08:10:34;95817.88;;;24.31;54.00
72395;BME280;60384;48.152;11.614;2022-07-23T08:13:34;95810.81;;;24.37;53.77
72395;BME280;60384;48.152;11.614;2022-07-23T08:16:34;95813.56;;;24.34;53.94
72395;BME280;60384;48.152;11.614;2022-07-23T08:19:35;95810.44;;;24.35;54.07
72395;BME280;60384;48.152;11.614;2022-07-23T08:22:56;95824.22;;;24.14;54.76
72395;BME280;60384;48.152;11.614;2022-07-23T08:25:57;95826.94;;;24.14;54.97
72395;BME280;60384;48.152;11.614;2022-07-23T08:28:57;95817.13;;;24.27;54.58
72395;BME280;60384;48.152;11.614;2022-07-23T08:31:57;95824.06;;;24.39;54.83
72395;BME280;60384;48.152;11.614;2022-07-23T08:34:58;95836.88;;;24.49;54.35
72395;BME280;60384;48.152;11.614;2022-07-23T08:38:00;95830.50;;;24.62;54.19
72395;BME280;60384;48.152;11.614;2022-07-23T08:41:00;95832.31;;;24.80;53.85
72395;BME280;60384;48.152;11.614;2022-07-23T08:44:01;95831.00;;;24.98;53.41
72395;BME280;60384;48.152;11.614;2022-07-23T08:47:02;95821.78;;;25.19;53.50
72395;BME280;60384;48.152;11.614;2022-07-23T08:50:03;95822.78;;;25.36;53.13
72395;BME280;60384;48.152;11.614;2022-07-23T08:53:07;95817.59;;;25.45;52.96
72395;BME280;60384;48.152;11.614;2022-07-23T08:56:08;95821.84;;;25.49;52.99
72395;BME280;60384;48.152;11.614;2022-07-23T08:59:08;95824.31;;;25.37;52.93
72395;BME280;60384;48.152;11.614;2022-07-23T09:02:09;95820.88;;;25.29;53.09
72395;BME280;60384;48.152;11.614;2022-07-23T09:05:11;95840.81;;;25.30;53.42
72395;BME280;60384;48.152;11.614;2022-07-23T09:08:14;95866.22;;;25.30;53.05
72395;BME280;60384;48.152;11.614;2022-07-23T09:11:18;95888.03;;;25.37;53.74
72395;BME280;60384;48.152;11.614;2022-07-23T09:14:42;95873.50;;;25.44;53.10
72395;BME280;60384;48.152;11.614;2022-07-23T09:17:43;95882.38;;;25.55;52.94
72395;BME280;60384;48.152;11.614;2022-07-23T09:20:44;95872.88;;;25.67;52.97
72395;BME280;60384;48.152;11.614;2022-07-23T09:26:49;95880.97;;;26.08;52.13
72395;BME280;60384;48.152;11.614;2022-07-23T09:29:56;95878.81;;;26.22;51.49
72395;BME280;60384;48.152;11.614;2022-07-23T09:33:08;95877.00;;;26.43;51.61
72395;BME280;60384;48.152;11.614;2022-07-23T09:36:08;95884.78;;;26.71;51.16
72395;BME280;60384;48.152;11.614;2022-07-23T09:39:10;95870.47;;;26.83;50.59
72395;BME280;60384;48.152;11.614;2022-07-23T09:42:26;95874.91;;;27.00;51.31
72395;BME280;60384;48.152;11.614;2022-07-23T09:45:26;95893.50;;;27.36;50.88
72395;BME280;60384;48.152;11.614;2022-07-23T09:48:27;95882.50;;;27.99;49.71
72395;BME280;60384;48.152;11.614;2022-07-23T09:51:27;95881.22;;;28.23;49.34
72395;BME280;60384;48.152;11.614;2022-07-23T09:54:38;95872.84;;;28.62;48.92
72395;BME280;60384;48.152;11.614;2022-07-23T09:57:44;95870.38;;;29.33;47.86
72395;BME280;60384;48.152;11.614;2022-07-23T10:00:57;95859.78;;;29.89;47.71
72395;BME280;60384;48.152;11.614;2022-07-23T10:03:59;95859.81;;;30.14;47.73
72395;BME280;60384;48.152;11.614;2022-07-23T10:07:02;95857.53;;;30.13;48.40
72395;BME280;60384;48.152;11.614;2022-07-23T10:10:04;95855.50;;;29.59;48.51
72395;BME280;60384;48.152;11.614;2022-07-23T10:13:05;95858.75;;;29.25;49.09
72395;BME280;60384;48.152;11.614;2022-07-23T10:16:46;95861.38;;;29.29;48.41
72395;BME280;60384;48.152;11.614;2022-07-23T10:19:48;95860.88;;;29.34;48.82
72395;BME280;60384;48.152;11.614;2022-07-23T10:26:13;95838.81;;;29.79;47.57
72395;BME280;60384;48.152;11.614;2022-07-23T10:33:02;95824.00;;;30.14;47.08
72395;BME280;60384;48.152;11.614;2022-07-23T10:39:39;95827.63;;;30.36;46.47
72395;BME280;60384;48.152;11.614;2022-07-23T10:42:39;95830.19;;;30.44;45.94
72395;BME280;60384;48.152;11.614;2022-07-23T10:45:41;95827.19;;;30.25;45.80
72395;BME280;60384;48.152;11.614;2022-07-23T10:48:41;95829.75;;;30.07;46.13
72395;BME280;60384;48.152;11.614;2022-07-23T10:58:19;95822.25;;;29.66;46.07
72395;BME280;60384;48.152;11.614;2022-07-23T11:01:36;95829.06;;;29.62;45.65
72395;BME280;60384;48.152;11.614;2022-07-23T11:04:48;95826.00;;;29.72;44.79
72395;BME280;60384;48.152;11.614;2022-07-23T11:14:05;95829.94;;;29.58;45.16
72395;BME280;60384;48.152;11.614;2022-07-23T11:17:19;95822.50;;;29.43;45.04
72395;BME280;60384;48.152;11.614;2022-07-23T11:20:21;95822.81;;;29.32;44.83
72395;BME280;60384;48.152;11.614;2022-07-23T11:23:22;95822.97;;;29.25;44.99
72395;BME280;60384;48.152;11.614;2022-07-23T11:29:38;95811.13;;;29.12;44.79
72395;BME280;60384;48.152;11.614;2022-07-23T11:32:40;95821.22;;;29.02;45.04
72395;BME280;60384;48.152;11.614;2022-07-23T11:35:44;95825.44;;;28.91;44.85
72395;BME280;60384;48.152;11.614;2022-07-23T11:38:49;95827.69;;;28.80;44.76
72395;BME280;60384;48.152;11.614;2022-07-23T11:41:51;95823.53;;;28.71;45.15
72395;BME280;60384;48.152;11.614;2022-07-23T11:44:52;95825.59;;;28.67;45.19
72395;BME280;60384;48.152;11.614;2022-07-23T11:47:52;95825.75;;;28.60;44.87
72395;BME280;60384;48.152;11.614;2022-07-23T11:50:55;95825.25;;;28.49;44.81
72395;BME280;60384;48.152;11.614;2022-07-23T11:54:05;95828.59;;;28.41;44.91
72395;BME280;60384;48.152;11.614;2022-07-23T11:57:06;95822.84;;;28.35;44.93
72395;BME280;60384;48.152;11.614;2022-07-23T12:00:08;95827.97;;;28.33;44.95
72395;BME280;60384;48.152;11.614;2022-07-23T12:03:10;95829.94;;;28.32;44.95
72395;BME280;60384;48.152;11.614;2022-07-23T12:06:10;95823.00;;;28.28;44.76
72395;BME280;60384;48.152;11.614;2022-07-23T12:09:11;95820.00;;;28.22;44.63
72395;BME280;60384;48.152;11.614;2022-07-23T12:12:11;95814.34;;;28.10;44.92
72395;BME280;60384;48.152;11.614;2022-07-23T12:15:13;95818.47;;;28.02;45.08
72395;BME280;60384;48.152;11.614;2022-07-23T12:18:16;95817.41;;;27.95;45.33
72395;BME280;60384;48.152;11.614;2022-07-23T12:21:17;95815.94;;;27.91;45.46
72395;BME280;60384;48.152;11.614;2022-07-23T12:24:18;95815.59;;;27.89;45.13
72395;BME280;60384;48.152;11.614;2022-07-23T12:27:21;95815.25;;;27.87;45.38
72395;BME280;60384;48.152;11.614;2022-07-23T12:33:29;95814.47;;;27.86;44.79
72395;BME280;60384;48.152;11.614;2022-07-23T12:36:37;95818.75;;;27.87;45.16
72395;BME280;60384;48.152;11.614;2022-07-23T12:39:39;95805.41;;;27.89;45.28
72395;BME280;60384;48.152;11.614;2022-07-23T12:42:43;95809.97;;;27.96;45.19
72395;BME280;60384;48.152;11.614;2022-07-23T12:51:47;95817.22;;;27.86;45.29
72395;BME280;60384;48.152;11.614;2022-07-23T12:54:47;95814.19;;;27.81;45.40
72395;BME280;60384;48.152;11.614;2022-07-23T12:57:47;95815.88;;;27.75;45.47
72395;BME280;60384;48.152;11.614;2022-07-23T13:01:01;95810.13;;;27.69;45.96
72395;BME280;60384;48.152;11.614;2022-07-23T13:07:09;95812.53;;;27.67;46.16
72395;BME280;60384;48.152;11.614;2022-07-23T13:10:09;95815.63;;;27.69;46.00
72395;BME280;60384;48.152;11.614;2022-07-23T13:13:12;95825.69;;;27.76;45.88
72395;BME280;60384;48.152;11.614;2022-07-23T13:16:12;95823.91;;;27.85;45.98
72395;BME280;60384;48.152;11.614;2022-07-23T13:19:13;95831.56;;;27.94;45.46
72395;BME280;60384;48.152;11.614;2022-07-23T13:22:13;95826.34;;;28.00;45.92
72395;BME280;60384;48.152;11.614;2022-07-23T13:25:14;95821.63;;;28.00;45.57
72395;BME280;60384;48.152;11.614;2022-07-23T13:28:16;95825.31;;;27.93;45.57
72395;BME280;60384;48.152;11.614;2022-07-23T13:31:17;95831.66;;;27.90;46.04
72395;BME280;60384;48.152;11.614;2022-07-23T13:34:17;95829.84;;;27.84;45.41
72395;BME280;60384;48.152;11.614;2022-07-23T13:37:18;95826.09;;;27.74;45.58
72395;BME280;60384;48.152;11.614;2022-07-23T13:40:18;95825.00;;;27.72;45.89
72395;BME280;60384;48.152;11.614;2022-07-23T13:43:21;95820.19;;;27.76;46.61
72395;BME280;60384;48.152;11.614;2022-07-23T13:46:22;95822.19;;;27.91;45.84
72395;BME280;60384;48.152;11.614;2022-07-23T13:49:23;95819.22;;;28.22;46.26
72395;BME280;60384;48.152;11.614;2022-07-23T13:52:24;95813.72;;;28.54;45.65
72395;BME280;60384;48.152;11.614;2022-07-23T13:55:24;95819.84;;;28.46;45.51
72395;BME280;60384;48.152;11.614;2022-07-23T13:58:25;95821.66;;;28.36;46.11
72395;BME280;60384;48.152;11.614;2022-07-23T14:01:27;95812.88;;;28.25;45.93
72395;BME280;60384;48.152;11.614;2022-07-23T14:04:28;95816.97;;;28.17;45.77
72395;BME280;60384;48.152;11.614;2022-07-23T14:07:28;95819.38;;;28.15;46.02
72395;BME280;60384;48.152;11.614;2022-07-23T14:10:29;95818.22;;;28.12;45.97
72395;BME280;60384;48.152;11.614;2022-07-23T14:13:30;95827.53;;;27.99;46.19
72395;BME280;60384;48.152;11.614;2022-07-23T14:16:30;95811.66;;;27.90;45.89
72395;BME280;60384;48.152;11.614;2022-07-23T14:19:31;95813.88;;;27.79;46.24
72395;BME280;60384;48.152;11.614;2022-07-23T14:22:31;95808.56;;;27.68;46.64
72395;BME280;60384;48.152;11.614;2022-07-23T14:25:32;95800.69;;;27.70;46.54
72395;BME280;60384;48.152;11.614;2022-07-23T14:28:33;95806.88;;;27.74;46.51
72395;BME280;60384;48.152;11.614;2022-07-23T14:31:33;95808.44;;;27.75;46.36
72395;BME280;60384;48.152;11.614;2022-07-23T14:34:34;95813.00;;;27.82;46.48
72395;BME280;60384;48.152;11.614;2022-07-23T14:37:35;95815.25;;;27.87;46.14
72395;BME280;60384;48.152;11.614;2022-07-23T14:40:35;95801.38;;;27.94;46.38
72395;BME280;60384;48.152;11.614;2022-07-23T14:43:36;95795.44;;;27.95;46.54
72395;BME280;60384;48.152;11.614;2022-07-23T14:46:37;95802.00;;;28.02;46.33
72395;BME280;60384;48.152;11.614;2022-07-23T14:49:38;95800.75;;;28.03;46.17
72395;BME280;60384;48.152;11.614;2022-07-23T14:52:38;95798.56;;;28.14;46.56
72395;BME280;60384;48.152;11.614;2022-07-23T14:55:39;95794.75;;;28.44;46.49
72395;BME280;60384;48.152;11.614;2022-07-23T14:58:40;95778.59;;;28.62;45.88
72395;BME280;60384;48.152;11.614;2022-07-23T15:01:40;95779.78;;;28.61;45.69
72395;BME280;60384;48.152;11.614;2022-07-23T15:04:41;95778.50;;;28.65;45.77
72395;BME280;60384;48.152;11.614;2022-07-23T15:07:41;95775.59;;;28.56;45.93
72395;BME280;60384;48.152;11.614;2022-07-23T15:10:41;95784.53;;;28.44;45.67
72395;BME280;60384;48.152;11.614;2022-07-23T15:13:42;95786.34;;;28.34;46.17
72395;BME280;60384;48.152;11.614;2022-07-23T15:16:43;95788.06;;;28.28;46.36
72395;BME280;60384;48.152;11.614;2022-07-23T15:19:43;95786.75;;;28.33;45.74
72395;BME280;60384;48.152;11.614;2022-07-23T15:22:44;95784.25;;;28.39;46.53
72395;BME280;60384;48.152;11.614;2022-07-23T15:25:45;95787.63;;;28.62;46.24
72395;BME280;60384;48.152;11.614;2022-07-23T15:28:45;95796.41;;;28.73;45.85
72395;BME280;60384;48.152;11.614;2022-07-23T15:31:45;95795.88;;;28.62;45.73
72395;BME280;60384;48.152;11.614;2022-07-23T15:34:46;95805.72;;;28.60;45.94
72395;BME280;60384;48.152;11.614;2022-07-23T15:37:46;95799.81;;;28.77;45.91
72395;BME280;60384;48.152;11.614;2022-07-23T15:40:47;95801.56;;;28.88;46.08
72395;BME280;60384;48.152;11.614;2022-07-23T15:43:47;95806.16;;;29.07;45.81
72395;BME280;60384;48.152;11.614;2022-07-23T15:46:48;95807.97;;;29.42;45.55
72395;BME280;60384;48.152;11.614;2022-07-23T15:49:48;95798.34;;;29.76;45.51
72395;BME280;60384;48.152;11.614;2022-07-23T15:52:49;95784.66;;;30.01;44.69
72395;BME280;60384;48.152;11.614;2022-07-23T15:55:49;95789.84;;;30.24;45.21
72395;BME280;60384;48.152;11.614;2022-07-23T15:58:50;95783.72;;;30.42;44.52
72395;BME280;60384;48.152;11.614;2022-07-23T16:01:50;95792.34;;;30.57;44.42
72395;BME280;60384;48.152;11.614;2022-07-23T16:04:51;95787.91;;;30.72;43.93
72395;BME280;60384;48.152;11.614;2022-07-23T16:07:52;95788.66;;;30.85;44.38
72395;BME280;60384;48.152;11.614;2022-07-23T16:10:52;95794.63;;;30.84;43.84
72395;BME280;60384;48.152;11.614;2022-07-23T16:13:53;95797.13;;;30.91;44.00
72395;BME280;60384;48.152;11.614;2022-07-23T16:16:53;95791.03;;;30.96;43.66
72395;BME280;60384;48.152;11.614;2022-07-23T16:19:54;95790.91;;;30.99;43.58
72395;BME280;60384;48.152;11.614;2022-07-23T16:22:54;95796.13;;;30.97;44.05
72395;BME280;60384;48.152;11.614;2022-07-23T16:25:54;95803.59;;;30.75;43.81
72395;BME280;60384;48.152;11.614;2022-07-23T16:28:55;95808.69;;;30.51;43.70
72395;BME280;60384;48.152;11.614;2022-07-23T16:31:55;95804.38;;;30.25;44.04